Time;durP1;ratioP1;P1;durP2;ratioP2;P2;SDS_P1;SDS_P2;PMS_P1;PMS_P2;Temp;Humidity;BMP_temperature;BMP_pressure;BME280_temperature;BME280_humidity;BME280_pressure;Samples;Min_cycle;Max_cycle;Signal;HPM_P1;HPM_P2
2023/08/25 00:00:56;;;;;;;15.90;12.43;;;19.20;99.90;;;;;;4954660;28;20540;-83
2023/08/25 00:03:21;;;;;;;14.40;12.30;;;19.10;99.90;;;;;;4966433;28;20512;-84
2023/08/25 00:05:53;;;;;;;14.40;12.20;;;19.10;99.90;;;;;;4938069;28;20070;-83
2023/08/25 00:08:19;;;;;;;14.23;12.73;;;19.10;99.90;;;;;;4973540;28;20169;-84
2023/08/25 00:10:44;;;;;;;14.63;12.90;;;19.10;99.90;;;;;;4960543;28;20043;-83
2023/08/25 00:13:10;;;;;;;13.57;12.13;;;19.00;99.90;;;;;;4961181;28;20552;-83
2023/08/25 00:15:36;;;;;;;17.05;13.27;;;19.00;99.90;;;;;;4959877;28;20504;-84
2023/08/25 00:18:02;;;;;;;18.00;13.98;;;18.90;99.90;;;;;;4978901;28;20168;-83
2023/08/25 00:20:28;;;;;;;16.80;13.73;;;18.90;99.90;;;;;;4959379;28;20134;-83
2023/08/25 00:22:54;;;;;;;16.80;14.55;;;18.90;99.90;;;;;;4961289;28;20137;-83
2023/08/25 00:25:19;;;;;;;17.27;14.70;;;18.90;99.90;;;;;;4976024;28;20141;-83
2023/08/25 00:27:45;;;;;;;21.25;15.93;;;19.00;99.90;;;;;;4959423;28;20076;-83
2023/08/25 00:30:12;;;;;;;18.08;15.38;;;19.00;99.90;;;;;;4960822;28;20398;-84
2023/08/25 00:32:40;;;;;;;23.95;16.80;;;19.00;99.90;;;;;;4977369;28;20034;-83
2023/08/25 00:35:06;;;;;;;19.42;16.95;;;19.10;99.90;;;;;;4962115;28;20606;-84
2023/08/25 00:37:32;;;;;;;20.00;17.77;;;19.20;99.90;;;;;;4976853;28;20035;-84
2023/08/25 00:39:57;;;;;;;23.20;18.90;;;19.30;99.90;;;;;;4946801;28;20398;-84
2023/08/25 00:42:23;;;;;;;22.50;18.50;;;19.30;99.90;;;;;;4961731;28;20426;-83
2023/08/25 00:44:49;;;;;;;21.58;18.45;;;19.30;99.90;;;;;;4943571;28;20045;-84
2023/08/25 00:47:14;;;;;;;23.17;18.75;;;19.30;99.90;;;;;;4958161;28;20322;-83
2023/08/25 00:49:44;;;;;;;21.05;18.58;;;19.30;99.90;;;;;;4944243;28;20046;-83
2023/08/25 00:52:10;;;;;;;23.15;18.50;;;19.20;99.90;;;;;;4945664;28;20093;-83
2023/08/25 00:54:37;;;;;;;21.08;17.35;;;19.20;99.90;;;;;;4944378;28;20195;-82
2023/08/25 00:57:03;;;;;;;21.55;17.80;;;19.30;99.90;;;;;;4961908;28;20035;-84
2023/08/25 00:59:31;;;;;;;25.95;19.63;;;19.30;99.90;;;;;;4943829;28;20065;-83
2023/08/25 01:01:57;;;;;;;20.05;17.67;;;19.40;99.90;;;;;;4957996;28;20042;-83
2023/08/25 01:04:22;;;;;;;21.83;18.75;;;19.40;99.90;;;;;;4944715;28;20039;-83
2023/08/25 01:06:48;;;;;;;21.70;19.00;;;19.40;99.90;;;;;;4947430;28;20058;-83
2023/08/25 01:09:15;;;;;;;20.85;18.23;;;19.40;99.90;;;;;;4956128;28;20042;-83
2023/08/25 01:12:01;;;;;;;23.85;18.67;;;19.40;99.90;;;;;;4963053;28;20034;-83
2023/08/25 01:14:50;;;;;;;22.05;18.50;;;19.30;99.90;;;;;;4961347;28;20034;-84
2023/08/25 01:17:42;;;;;;;22.58;18.55;;;19.30;99.90;;;;;;4943369;28;20046;-83
2023/08/25 01:20:09;;;;;;;22.95;19.35;;;19.30;99.90;;;;;;4975840;28;20575;-83
2023/08/25 01:22:56;;;;;;;27.33;19.95;;;19.20;99.90;;;;;;4962794;28;20110;-83
2023/08/25 01:25:27;;;;;;;24.80;19.98;;;19.20;99.90;;;;;;4955223;28;20392;-83
2023/08/25 01:27:58;;;;;;;23.45;19.45;;;19.20;99.90;;;;;;4974764;28;20042;-83
2023/08/25 01:30:30;;;;;;;22.65;18.52;;;19.10;99.90;;;;;;4961420;28;20141;-83
2023/08/25 01:32:55;;;;;;;24.67;20.50;;;19.10;99.90;;;;;;4944984;28;20038;-83
2023/08/25 01:35:45;;;;;;;24.30;20.33;;;19.10;99.90;;;;;;4957525;28;20046;-84
2023/08/25 01:38:23;;;;;;;25.50;20.33;;;19.10;99.90;;;;;;4975951;28;21115;-83
2023/08/25 01:41:23;;;;;;;22.92;20.42;;;19.00;99.90;;;;;;4958677;28;20398;-83
2023/08/25 01:43:51;;;;;;;23.65;20.20;;;18.90;99.90;;;;;;4958548;28;20086;-83
2023/08/25 01:46:18;;;;;;;25.20;21.77;;;18.90;99.90;;;;;;4960356;28;20121;-83
2023/08/25 01:48:47;;;;;;;29.48;22.77;;;18.80;99.90;;;;;;4960175;28;20308;-83
2023/08/25 01:51:13;;;;;;;26.35;21.30;;;18.80;99.90;;;;;;4943798;28;20120;-83
2023/08/25 01:53:42;;;;;;;32.90;23.27;;;18.70;99.90;;;;;;4960711;28;20068;-84
2023/08/25 01:56:07;;;;;;;28.85;22.42;;;18.70;99.90;;;;;;4935177;28;20050;-83
2023/08/25 01:58:33;;;;;;;28.08;22.80;;;18.70;99.90;;;;;;4957613;28;20610;-83
2023/08/25 02:00:58;;;;;;;31.75;24.98;;;18.60;99.90;;;;;;4942026;28;20573;-83
2023/08/25 02:03:24;;;;;;;27.63;23.85;;;18.70;99.90;;;;;;4958141;28;20185;-83
2023/08/25 02:05:50;;;;;;;33.13;25.42;;;18.60;99.90;;;;;;4975559;28;20046;-83
2023/08/25 02:08:15;;;;;;;29.92;24.05;;;18.70;99.90;;;;;;4975008;28;20073;-83
2023/08/25 02:10:41;;;;;;;31.17;24.60;;;18.70;99.90;;;;;;4957784;28;20325;-83
2023/08/25 02:13:07;;;;;;;33.60;25.83;;;18.70;99.90;;;;;;4972215;28;20306;-83
2023/08/25 02:15:32;;;;;;;31.70;26.27;;;18.70;99.90;;;;;;4942819;28;20097;-84
2023/08/25 02:18:01;;;;;;;33.72;26.67;;;18.70;99.90;;;;;;4975412;28;20259;-83
2023/08/25 02:20:26;;;;;;;31.25;26.98;;;18.70;99.90;;;;;;4958593;28;20049;-84
2023/08/25 02:22:52;;;;;;;32.78;26.38;;;18.70;99.90;;;;;;4941942;28;20034;-83
2023/08/25 02:25:18;;;;;;;31.55;26.50;;;18.70;99.90;;;;;;4941977;28;20782;-83
2023/08/25 02:27:43;;;;;;;33.92;26.67;;;18.60;99.90;;;;;;4957339;28;20542;-83
2023/08/25 02:30:10;;;;;;;32.70;27.00;;;18.60;99.90;;;;;;4939620;28;20072;-83
2023/08/25 02:32:35;;;;;;;30.35;26.23;;;18.50;99.90;;;;;;4942737;28;20081;-83
2023/08/25 02:35:01;;;;;;;35.20;27.15;;;18.50;99.90;;;;;;4943459;28;20076;-83
2023/08/25 02:37:26;;;;;;;35.35;28.45;;;18.50;99.90;;;;;;4957162;28;20129;-83
2023/08/25 02:39:52;;;;;;;34.78;26.60;;;18.50;99.90;;;;;;4959520;28;20062;-83
2023/08/25 02:42:18;;;;;;;37.35;28.33;;;18.50;99.90;;;;;;4954945;28;20125;-83
2023/08/25 02:44:43;;;;;;;34.17;28.08;;;18.50;99.90;;;;;;4960207;28;20553;-83
2023/08/25 02:47:10;;;;;;;34.58;27.88;;;18.50;99.90;;;;;;4940766;28;20054;-83
2023/08/25 02:49:38;;;;;;;40.22;28.45;;;18.50;99.90;;;;;;4976387;28;20050;-83
2023/08/25 02:52:05;;;;;;;39.53;28.13;;;18.50;99.90;;;;;;4941983;28;20077;-83
2023/08/25 02:54:30;;;;;;;37.92;28.38;;;18.50;99.90;;;;;;4941850;28;20070;-83
2023/08/25 02:56:56;;;;;;;40.67;28.80;;;18.50;99.90;;;;;;4968409;28;20130;-83
2023/08/25 02:59:22;;;;;;;37.90;29.58;;;18.40;99.90;;;;;;4956906;28;20127;-84
2023/08/25 03:01:47;;;;;;;38.40;29.80;;;18.40;99.90;;;;;;4953952;28;20034;-83
2023/08/25 03:04:13;;;;;;;36.20;29.00;;;18.30;99.90;;;;;;4973860;28;20070;-83
2023/08/25 03:06:39;;;;;;;41.40;31.30;;;18.30;99.90;;;;;;4971832;28;20145;-83
2023/08/25 03:09:05;;;;;;;40.28;30.00;;;18.30;99.90;;;;;;4958826;28;20035;-83
2023/08/25 03:11:31;;;;;;;50.75;32.15;;;18.30;99.90;;;;;;4971481;28;20570;-82
2023/08/25 03:13:57;;;;;;;43.25;30.65;;;18.30;99.90;;;;;;4941952;28;20129;-82
2023/08/25 03:16:22;;;;;;;42.60;30.42;;;18.30;99.90;;;;;;4970316;28;20038;-83
2023/08/25 03:18:48;;;;;;;46.97;31.38;;;18.30;99.90;;;;;;4973945;28;20430;-82
2023/08/25 03:21:14;;;;;;;40.15;31.25;;;18.40;99.90;;;;;;4957693;28;20042;-82
2023/08/25 03:23:39;;;;;;;46.05;33.35;;;18.40;99.90;;;;;;4943530;28;20116;-82
2023/08/25 03:26:06;;;;;;;45.45;32.22;;;18.50;99.90;;;;;;4955761;28;20034;-82
2023/08/25 03:28:31;;;;;;;43.00;31.63;;;18.50;99.90;;;;;;4975821;28;20034;-82
2023/08/25 03:30:57;;;;;;;46.10;32.75;;;18.40;99.90;;;;;;4956883;28;20108;-82
2023/08/25 03:33:22;;;;;;;44.92;32.63;;;18.50;99.90;;;;;;4943088;28;20034;-82
2023/08/25 03:35:48;;;;;;;49.95;33.50;;;18.50;99.90;;;;;;4972717;28;20307;-82
2023/08/25 03:38:14;;;;;;;45.55;31.73;;;18.50;99.90;;;;;;4942477;28;20428;-82
2023/08/25 03:40:40;;;;;;;45.38;32.42;;;18.50;99.90;;;;;;4957928;28;20655;-82
2023/08/25 03:43:05;;;;;;;49.65;34.03;;;18.60;99.90;;;;;;4960801;28;20609;-82
2023/08/25 03:45:31;;;;;;;49.08;32.47;;;18.60;99.90;;;;;;4979255;28;20034;-82
2023/08/25 03:47:56;;;;;;;42.47;32.10;;;18.70;99.90;;;;;;4947158;28;20397;-82
2023/08/25 03:50:23;;;;;;;45.53;32.80;;;18.70;99.90;;;;;;4946841;28;20049;-82
2023/08/25 03:52:49;;;;;;;44.67;34.35;;;18.70;99.90;;;;;;4948252;28;20034;-82
2023/08/25 03:55:15;;;;;;;45.80;34.88;;;18.70;99.90;;;;;;4942254;28;20061;-82
2023/08/25 03:57:41;;;;;;;44.97;34.13;;;18.80;99.90;;;;;;4977415;28;20462;-82
2023/08/25 04:00:07;;;;;;;44.25;32.33;;;18.80;99.90;;;;;;4960955;28;20214;-82
2023/08/25 04:02:33;;;;;;;44.70;33.55;;;18.70;99.90;;;;;;4960608;28;20058;-82
2023/08/25 04:04:59;;;;;;;43.53;31.92;;;18.80;99.90;;;;;;4976644;28;20061;-82
2023/08/25 04:07:24;;;;;;;46.15;33.33;;;18.70;99.90;;;;;;4977012;28;20065;-82
2023/08/25 04:09:50;;;;;;;43.10;32.60;;;18.80;99.90;;;;;;4979208;28;20434;-82
2023/08/25 04:12:16;;;;;;;49.15;34.28;;;18.80;99.90;;;;;;4958887;28;20093;-82
2023/08/25 04:14:41;;;;;;;48.22;34.13;;;18.80;99.90;;;;;;4979968;28;20030;-82
2023/08/25 04:17:07;;;;;;;50.25;35.72;;;18.80;99.90;;;;;;4961848;28;20042;-82
2023/08/25 04:19:33;;;;;;;50.17;34.33;;;18.80;99.90;;;;;;4946971;28;20038;-82
2023/08/25 04:21:59;;;;;;;51.25;35.45;;;18.80;99.90;;;;;;4974628;28;20279;-82
2023/08/25 04:24:24;;;;;;;48.25;36.38;;;18.80;99.90;;;;;;4961332;28;20046;-82
2023/08/25 04:26:50;;;;;;;50.35;35.20;;;18.80;99.90;;;;;;4958491;28;21670;-83
2023/08/25 04:29:16;;;;;;;48.78;35.35;;;18.80;99.90;;;;;;4943959;28;20049;-82
2023/08/25 04:31:42;;;;;;;54.22;34.28;;;18.80;99.90;;;;;;4960663;28;20068;-82
2023/08/25 04:34:07;;;;;;;50.13;35.30;;;18.80;99.90;;;;;;4960028;28;20042;-82
2023/08/25 04:36:34;;;;;;;52.13;34.42;;;18.80;99.90;;;;;;4960409;28;20038;-82
2023/08/25 04:39:00;;;;;;;52.92;36.08;;;18.70;99.90;;;;;;4961993;28;20030;-82
2023/08/25 04:41:26;;;;;;;60.13;36.88;;;18.80;99.90;;;;;;4960130;28;20453;-82
2023/08/25 04:43:52;;;;;;;49.38;34.40;;;18.80;99.90;;;;;;4976028;28;20132;-82
2023/08/25 04:46:17;;;;;;;51.13;34.95;;;18.80;99.90;;;;;;4963009;28;20129;-82
2023/08/25 04:48:46;;;;;;;52.38;35.28;;;18.80;99.90;;;;;;4943469;28;20064;-82
2023/08/25 04:51:12;;;;;;;49.72;36.30;;;18.80;99.90;;;;;;4960434;28;20050;-82
2023/08/25 04:53:37;;;;;;;50.50;35.85;;;18.90;99.90;;;;;;4960561;28;20064;-82
2023/08/25 04:56:04;;;;;;;51.22;36.20;;;18.90;99.90;;;;;;4953383;28;20050;-82
2023/08/25 04:58:33;;;;;;;53.65;35.45;;;19.00;99.90;;;;;;4944934;28;20038;-82
2023/08/25 05:00:58;;;;;;;51.72;35.28;;;19.00;99.90;;;;;;4975203;28;20053;-82
2023/08/25 05:03:24;;;;;;;52.70;36.33;;;19.00;99.90;;;;;;4944167;28;20046;-82
2023/08/25 05:05:50;;;;;;;53.00;35.70;;;19.00;99.90;;;;;;4976512;28;20402;-82
2023/08/25 05:08:15;;;;;;;53.00;35.28;;;19.00;99.90;;;;;;4960821;28;20054;-82
2023/08/25 05:10:41;;;;;;;52.95;34.42;;;19.10;99.90;;;;;;4958809;28;20076;-83
2023/08/25 05:13:07;;;;;;;50.85;35.95;;;19.10;99.90;;;;;;4958207;28;20128;-82
2023/08/25 05:15:33;;;;;;;56.53;37.03;;;19.10;99.90;;;;;;4975565;28;20437;-83
2023/08/25 05:17:59;;;;;;;54.65;35.72;;;19.10;99.90;;;;;;4959695;28;20050;-82
2023/08/25 05:20:25;;;;;;;55.35;35.80;;;19.10;99.90;;;;;;4958754;28;20042;-82
2023/08/25 05:22:51;;;;;;;58.08;38.17;;;19.10;99.90;;;;;;4958495;28;20042;-82
2023/08/25 05:25:20;;;;;;;56.33;38.10;;;19.20;99.90;;;;;;4944516;28;20453;-83
2023/08/25 05:27:47;;;;;;;51.70;35.72;;;19.20;99.90;;;;;;4960036;28;20050;-82
2023/08/25 05:30:12;;;;;;;61.83;37.70;;;19.30;99.90;;;;;;4944349;28;20039;-82
2023/08/25 05:32:41;;;;;;;54.67;35.97;;;19.30;99.90;;;;;;4977068;28;20049;-82
2023/08/25 05:35:08;;;;;;;54.22;35.90;;;19.30;99.90;;;;;;4942778;28;20046;-82
2023/08/25 05:37:34;;;;;;;55.15;36.65;;;19.30;99.90;;;;;;4943456;28;20072;-82
2023/08/25 05:40:00;;;;;;;54.58;37.92;;;19.40;99.90;;;;;;4975740;28;20046;-82
2023/08/25 05:42:31;;;;;;;58.90;37.33;;;19.40;99.90;;;;;;4958564;28;20618;-82
2023/08/25 05:44:57;;;;;;;54.50;35.90;;;19.40;99.90;;;;;;4958504;28;20398;-82
2023/08/25 05:47:23;;;;;;;52.40;36.03;;;19.40;99.90;;;;;;4942772;28;20038;-82
2023/08/25 05:49:48;;;;;;;54.88;36.03;;;19.40;99.90;;;;;;4943521;28;20045;-82
2023/08/25 05:52:14;;;;;;;48.58;33.92;;;19.40;99.90;;;;;;4945288;28;20484;-82
2023/08/25 05:54:40;;;;;;;56.78;37.55;;;19.50;99.90;;;;;;4942283;28;20101;-82
2023/08/25 05:57:05;;;;;;;48.42;34.50;;;19.50;99.90;;;;;;4943571;28;21026;-82
2023/08/25 05:59:34;;;;;;;55.33;37.40;;;19.50;99.90;;;;;;4941439;28;20210;-82
2023/08/25 06:02:00;;;;;;;51.38;35.40;;;19.50;99.90;;;;;;4945203;28;20034;-83
2023/08/25 06:04:26;;;;;;;48.17;34.70;;;19.60;99.90;;;;;;4977002;28;20041;-82
2023/08/25 06:06:52;;;;;;;52.58;35.03;;;19.60;99.90;;;;;;4940982;28;20090;-82
2023/08/25 06:09:17;;;;;;;47.70;35.17;;;19.60;99.90;;;;;;4942930;28;20663;-82
2023/08/25 06:11:44;;;;;;;55.40;35.20;;;19.70;99.90;;;;;;4973771;28;20039;-82
2023/08/25 06:14:10;;;;;;;51.70;36.20;;;19.70;99.90;;;;;;4942137;28;20061;-82
2023/08/25 06:16:39;;;;;;;49.65;34.38;;;19.70;99.90;;;;;;4957638;28;20050;-82
2023/08/25 06:19:06;;;;;;;47.97;35.00;;;19.70;99.90;;;;;;4944337;28;20038;-82
2023/08/25 06:21:31;;;;;;;49.17;35.20;;;19.70;99.90;;;;;;4976569;28;20045;-82
2023/08/25 06:23:57;;;;;;;46.53;33.10;;;19.80;99.90;;;;;;4959780;28;20034;-82
2023/08/25 06:26:23;;;;;;;45.78;33.67;;;19.90;99.90;;;;;;4938281;28;20058;-82
2023/08/25 06:28:49;;;;;;;57.85;36.63;;;20.20;99.90;;;;;;4958884;28;20075;-82
2023/08/25 06:31:16;;;;;;;49.83;35.15;;;20.30;99.90;;;;;;4944586;28;20042;-82
2023/08/25 06:33:42;;;;;;;50.33;35.13;;;20.50;99.90;;;;;;4974317;28;20445;-82
2023/08/25 06:36:07;;;;;;;48.78;35.10;;;20.60;99.90;;;;;;4960006;28;20049;-82
2023/08/25 06:38:33;;;;;;;54.80;36.53;;;20.70;99.90;;;;;;4957788;28;20500;-82
2023/08/25 06:40:59;;;;;;;52.30;34.47;;;20.70;99.90;;;;;;4940081;28;20478;-83
2023/08/25 06:43:24;;;;;;;48.28;34.65;;;20.90;99.90;;;;;;4957072;28;20474;-82
2023/08/25 06:45:50;;;;;;;52.25;34.55;;;20.90;99.90;;;;;;4941435;28;20117;-83
2023/08/25 06:48:16;;;;;;;52.17;34.80;;;21.00;99.90;;;;;;4976029;28;20046;-83
2023/08/25 06:50:41;;;;;;;52.88;35.45;;;20.80;99.90;;;;;;4943904;28;20042;-83
2023/08/25 06:53:07;;;;;;;49.97;34.50;;;20.60;99.90;;;;;;4941568;28;20060;-83
2023/08/25 06:55:36;;;;;;;54.83;34.97;;;20.70;99.90;;;;;;4957599;28;20057;-82
2023/08/25 06:58:02;;;;;;;52.35;34.83;;;20.70;99.90;;;;;;4957611;28;20095;-83
2023/08/25 07:00:29;;;;;;;54.42;34.55;;;20.60;99.90;;;;;;4976308;28;20039;-82
2023/08/25 07:02:54;;;;;;;48.17;33.72;;;20.60;99.90;;;;;;4976404;28;20042;-82
2023/08/25 07:05:20;;;;;;;52.42;34.40;;;20.70;99.90;;;;;;4944381;28;20050;-82
2023/08/25 07:07:47;;;;;;;50.70;34.72;;;20.60;99.90;;;;;;4960177;28;20058;-82
2023/08/25 07:10:13;;;;;;;53.55;33.97;;;20.70;99.90;;;;;;4957743;28;20526;-82
2023/08/25 07:12:40;;;;;;;53.60;35.08;;;20.80;99.90;;;;;;4958156;28;20283;-83
2023/08/25 07:15:09;;;;;;;55.65;34.65;;;20.90;99.90;;;;;;4957713;28;21165;-82
2023/08/25 07:17:35;;;;;;;52.08;34.58;;;21.20;99.90;;;;;;4957571;28;20058;-82
2023/08/25 07:20:01;;;;;;;51.00;34.08;;;21.40;99.90;;;;;;4942783;28;20520;-83
2023/08/25 07:22:26;;;;;;;51.33;33.85;;;21.50;99.90;;;;;;4943567;28;20050;-82
2023/08/25 07:24:55;;;;;;;51.92;34.15;;;21.70;99.90;;;;;;4958339;28;20078;-82
2023/08/25 07:27:21;;;;;;;54.15;35.35;;;21.50;99.90;;;;;;4957174;28;20138;-83
2023/08/25 07:29:46;;;;;;;50.88;33.58;;;21.10;99.90;;;;;;4960075;28;20739;-83
2023/08/25 07:32:12;;;;;;;53.70;33.90;;;21.30;99.90;;;;;;4948245;28;20069;-83
2023/08/25 07:34:37;;;;;;;51.95;33.20;;;21.30;99.90;;;;;;4957830;28;20038;-82
2023/08/25 07:37:03;;;;;;;55.65;33.45;;;21.30;99.90;;;;;;4958412;28;20065;-83
2023/08/25 07:39:29;;;;;;;55.30;32.90;;;21.20;99.90;;;;;;4956525;28;20513;-82
2023/08/25 07:41:55;;;;;;;56.28;34.25;;;21.20;99.90;;;;;;4975206;28;20034;-82
2023/08/25 07:44:21;;;;;;;54.38;35.00;;;21.10;99.90;;;;;;4940263;28;20759;-83
2023/08/25 07:46:47;;;;;;;55.00;35.25;;;21.10;99.90;;;;;;4972673;28;20088;-83
2023/08/25 07:49:12;;;;;;;55.00;35.00;;;20.90;99.90;;;;;;4976139;28;20544;-83
2023/08/25 07:51:38;;;;;;;52.55;34.55;;;20.90;99.90;;;;;;4942412;28;20094;-83
2023/08/25 07:54:05;;;;;;;55.45;35.38;;;20.90;99.90;;;;;;4942553;28;20445;-83
2023/08/25 07:56:30;;;;;;;54.83;34.42;;;20.90;99.90;;;;;;4972051;28;20440;-83
2023/08/25 07:58:56;;;;;;;56.58;35.50;;;21.20;99.90;;;;;;4972921;28;20080;-83
2023/08/25 08:01:22;;;;;;;52.92;34.55;;;21.20;99.90;;;;;;4960164;28;20121;-83
2023/08/25 08:03:48;;;;;;;54.03;33.78;;;21.20;99.90;;;;;;4973507;28;20500;-83
2023/08/25 08:06:14;;;;;;;56.92;34.20;;;21.20;99.90;;;;;;4959367;28;20041;-83
2023/08/25 08:08:40;;;;;;;49.63;33.20;;;21.20;99.90;;;;;;4954431;28;20478;-83
2023/08/25 08:11:05;;;;;;;56.33;35.55;;;21.40;99.90;;;;;;4937791;28;20052;-82
2023/08/25 08:13:31;;;;;;;51.40;33.00;;;21.70;99.90;;;;;;4940501;28;20042;-83
2023/08/25 08:15:57;;;;;;;51.97;33.85;;;22.10;99.90;;;;;;4939191;28;20370;-83
2023/08/25 08:18:22;;;;;;;50.88;33.08;;;22.40;99.90;;;;;;4944304;28;20034;-82
2023/08/25 08:20:48;;;;;;;51.78;33.28;;;22.40;99.90;;;;;;4941104;28;20133;-83
2023/08/25 08:23:15;;;;;;;51.70;32.95;;;22.40;99.90;;;;;;4943736;28;20061;-83
2023/08/25 08:25:41;;;;;;;55.85;32.03;;;22.00;99.90;;;;;;4969870;28;20120;-83
2023/08/25 08:28:09;;;;;;;55.28;33.47;;;22.30;99.90;;;;;;4942781;28;20050;-84
2023/08/25 08:30:35;;;;;;;50.08;32.83;;;22.20;99.90;;;;;;4976498;28;20038;-83
2023/08/25 08:33:01;;;;;;;49.55;31.40;;;22.00;99.90;;;;;;4957745;28;20469;-83
2023/08/25 08:35:26;;;;;;;50.15;32.35;;;22.30;99.90;;;;;;4962133;28;20065;-83
2023/08/25 08:37:52;;;;;;;51.15;32.70;;;22.10;99.90;;;;;;4944852;28;20085;-83
2023/08/25 08:40:20;;;;;;;50.75;31.02;;;22.20;99.90;;;;;;4945692;28;20116;-83
2023/08/25 08:42:47;;;;;;;47.67;30.95;;;22.20;99.90;;;;;;4944411;28;20069;-83
2023/08/25 08:45:18;;;;;;;45.83;31.45;;;22.10;99.90;;;;;;4961370;28;20096;-83
2023/08/25 08:47:45;;;;;;;48.85;32.13;;;22.20;99.90;;;;;;4962673;28;20038;-83
2023/08/25 08:50:11;;;;;;;47.72;31.67;;;22.30;99.90;;;;;;4946032;28;20034;-84
2023/08/25 08:52:36;;;;;;;47.83;31.17;;;22.30;99.90;;;;;;4946153;28;20507;-83
2023/08/25 08:55:07;;;;;;;46.65;31.83;;;22.10;99.90;;;;;;4960353;28;20129;-83
2023/08/25 08:57:32;;;;;;;47.50;30.38;;;21.90;99.90;;;;;;4959290;28;20034;-83
2023/08/25 09:00:01;;;;;;;45.25;29.58;;;21.80;99.90;;;;;;4945077;28;20477;-83
2023/08/25 09:02:28;;;;;;;46.83;29.92;;;21.80;99.90;;;;;;4945081;28;20195;-83
2023/08/25 09:05:00;;;;;;;45.40;30.25;;;21.90;99.90;;;;;;4961224;28;20509;-83
2023/08/25 09:07:28;;;;;;;44.72;29.02;;;22.00;99.90;;;;;;4958621;28;20084;-83
2023/08/25 09:09:54;;;;;;;43.70;30.05;;;22.00;99.90;;;;;;4974392;28;20129;-83
2023/08/25 09:12:20;;;;;;;48.83;31.60;;;21.90;99.90;;;;;;4959292;28;20129;-83
2023/08/25 09:14:45;;;;;;;44.00;31.05;;;21.80;99.90;;;;;;4959430;28;20030;-83
2023/08/25 09:17:15;;;;;;;47.22;30.65;;;21.50;99.90;;;;;;4945656;28;20394;-83
2023/08/25 09:19:41;;;;;;;44.42;30.05;;;21.60;99.90;;;;;;4960679;28;20050;-84
2023/08/25 09:22:11;;;;;;;43.28;30.63;;;21.60;99.90;;;;;;4946532;28;20057;-83
2023/08/25 09:24:40;;;;;;;44.65;28.80;;;21.50;99.90;;;;;;4945588;28;20090;-83
2023/08/25 09:27:06;;;;;;;44.53;29.27;;;21.40;99.90;;;;;;4945452;28;20532;-83
2023/08/25 09:29:45;;;;;;;41.13;28.83;;;21.40;99.90;;;;;;4945376;28;20125;-83
2023/08/25 09:32:14;;;;;;;44.10;29.88;;;21.30;99.90;;;;;;4961585;28;20073;-83
2023/08/25 09:34:40;;;;;;;45.38;29.23;;;21.50;99.90;;;;;;4960635;28;20039;-83
2023/08/25 09:37:07;;;;;;;45.20;29.95;;;21.40;99.90;;;;;;4958933;28;20417;-83
2023/08/25 09:39:43;;;;;;;41.90;29.17;;;21.30;99.90;;;;;;4958253;28;20044;-83
2023/08/25 09:42:08;;;;;;;42.38;30.42;;;21.40;99.90;;;;;;4975654;28;20074;-83
2023/08/25 09:44:34;;;;;;;48.65;32.25;;;21.90;99.90;;;;;;4960013;28;20038;-82
2023/08/25 09:47:01;;;;;;;48.00;31.75;;;21.90;99.90;;;;;;4957785;28;20038;-82
2023/08/25 09:49:37;;;;;;;49.33;31.50;;;21.90;99.90;;;;;;4977734;28;20037;-83
2023/08/25 09:52:05;;;;;;;45.70;31.10;;;22.10;99.90;;;;;;4975968;28;20685;-83
2023/08/25 09:54:33;;;;;;;43.47;29.65;;;22.30;99.90;;;;;;4956554;28;20046;-83
2023/08/25 09:56:59;;;;;;;42.38;29.75;;;22.40;99.90;;;;;;4959629;28;20385;-83
2023/08/25 09:59:25;;;;;;;46.50;30.08;;;22.60;99.90;;;;;;4943165;28;20038;-83
2023/08/25 10:01:51;;;;;;;45.45;30.70;;;22.50;99.90;;;;;;4957518;28;20053;-83
2023/08/25 10:04:17;;;;;;;41.72;29.17;;;22.60;99.90;;;;;;4945490;28;20051;-83
2023/08/25 10:06:42;;;;;;;44.17;29.50;;;22.80;99.90;;;;;;4944518;28;20042;-83
2023/08/25 10:09:09;;;;;;;42.30;29.00;;;22.90;99.90;;;;;;4956884;28;20205;-83
2023/08/25 10:11:42;;;;;;;45.60;29.75;;;23.10;99.90;;;;;;4944792;28;20109;-83
2023/08/25 10:14:10;;;;;;;41.40;29.05;;;22.70;99.90;;;;;;4959963;28;20046;-83
2023/08/25 10:16:44;;;;;;;45.55;28.85;;;22.80;99.90;;;;;;4943930;28;20605;-83
2023/08/25 10:19:14;;;;;;;43.70;29.02;;;22.90;99.90;;;;;;4959463;28;20045;-83
2023/08/25 10:21:44;;;;;;;41.45;27.63;;;22.90;99.90;;;;;;4959559;28;20245;-83
2023/08/25 10:24:10;;;;;;;44.13;29.30;;;22.70;99.90;;;;;;4942991;28;20136;-83
2023/08/25 10:26:36;;;;;;;42.28;27.42;;;22.70;99.90;;;;;;4970478;28;20052;-83
2023/08/25 10:29:03;;;;;;;41.15;27.83;;;22.50;99.90;;;;;;4960905;28;20081;-83
2023/08/25 10:31:30;;;;;;;42.13;28.40;;;22.60;99.90;;;;;;4973232;28;20462;-83
2023/08/25 10:33:56;;;;;;;45.20;28.95;;;22.40;99.90;;;;;;4961115;28;20482;-83
2023/08/25 10:36:23;;;;;;;38.63;29.38;;;22.20;99.90;;;;;;4943299;28;20127;-83
2023/08/25 10:38:54;;;;;;;43.10;30.10;;;22.00;99.90;;;;;;4944153;28;20069;-83
2023/08/25 10:41:21;;;;;;;42.67;29.75;;;21.80;99.90;;;;;;4957042;28;20050;-83
2023/08/25 10:43:52;;;;;;;50.22;31.73;;;21.90;99.90;;;;;;4945073;28;20078;-83
2023/08/25 10:46:20;;;;;;;42.42;29.90;;;21.80;99.90;;;;;;4974875;28;20070;-83
2023/08/25 10:48:48;;;;;;;42.25;29.88;;;21.70;99.90;;;;;;4960659;28;20550;-83
2023/08/25 10:51:20;;;;;;;49.00;29.92;;;21.70;99.90;;;;;;4965367;28;20034;-83
2023/08/25 10:53:50;;;;;;;41.38;29.73;;;21.60;99.90;;;;;;4944553;28;20455;-82
2023/08/25 10:56:21;;;;;;;42.45;31.13;;;21.50;99.90;;;;;;4958541;28;20112;-83
2023/08/25 10:58:58;;;;;;;40.50;29.75;;;21.50;99.90;;;;;;4973770;28;20046;-83
2023/08/25 11:01:37;;;;;;;42.78;30.75;;;21.50;99.90;;;;;;4955549;28;20058;-83
2023/08/25 11:04:07;;;;;;;44.85;30.25;;;21.50;99.90;;;;;;4944825;28;20393;-83
2023/08/25 11:06:45;;;;;;;43.95;30.25;;;21.40;99.90;;;;;;4964219;28;20078;-83
2023/08/25 11:09:23;;;;;;;51.67;30.75;;;21.60;99.90;;;;;;4972753;28;20058;-83
2023/08/25 11:12:09;;;;;;;42.97;30.63;;;21.60;99.90;;;;;;4957794;28;20042;-83
2023/08/25 11:14:37;;;;;;;45.10;30.30;;;21.60;99.90;;;;;;4940256;28;20544;-83
2023/08/25 11:17:05;;;;;;;49.20;31.35;;;21.60;99.90;;;;;;4940610;28;20066;-83
2023/08/25 11:19:36;;;;;;;48.42;33.10;;;21.70;99.90;;;;;;4941619;28;20034;-83
2023/08/25 11:22:08;;;;;;;47.65;31.15;;;21.80;99.90;;;;;;4959228;28;20571;-83
2023/08/25 11:24:34;;;;;;;43.90;31.20;;;21.90;99.90;;;;;;4957793;28;20529;-83
2023/08/25 11:27:05;;;;;;;45.15;30.15;;;21.90;99.90;;;;;;4973495;28;20046;-83
2023/08/25 11:29:31;;;;;;;42.88;30.17;;;22.00;99.90;;;;;;4959940;28;20499;-83
2023/08/25 11:31:57;;;;;;;44.47;30.75;;;21.90;99.90;;;;;;4956189;28;20038;-83
2023/08/25 11:34:23;;;;;;;45.80;30.77;;;21.70;99.90;;;;;;4957754;28;20257;-83
2023/08/25 11:36:49;;;;;;;41.72;30.27;;;21.70;99.90;;;;;;4942612;28;20050;-82
2023/08/25 11:39:21;;;;;;;44.85;30.88;;;21.60;99.90;;;;;;4976301;28;20042;-82
2023/08/25 11:41:46;;;;;;;41.58;30.95;;;21.60;99.90;;;;;;4955574;28;20061;-82
2023/08/25 11:44:13;;;;;;;46.67;30.10;;;21.60;99.90;;;;;;4959179;28;20042;-83
2023/08/25 11:46:39;;;;;;;40.85;29.60;;;21.60;99.90;;;;;;4958586;28;20061;-82
2023/08/25 11:49:06;;;;;;;44.05;31.70;;;21.50;99.90;;;;;;4958828;28;20035;-82
2023/08/25 11:51:35;;;;;;;44.40;30.85;;;21.30;99.90;;;;;;4960246;28;20046;-82
2023/08/25 11:54:01;;;;;;;47.55;32.58;;;21.20;99.90;;;;;;4956164;28;20077;-82
2023/08/25 11:56:26;;;;;;;46.28;31.52;;;21.20;99.90;;;;;;4940961;28;20038;-83
2023/08/25 11:58:53;;;;;;;47.15;33.05;;;21.10;99.90;;;;;;4976951;28;20035;-82
2023/08/25 12:01:18;;;;;;;51.47;32.45;;;21.20;99.90;;;;;;4942125;28;20137;-82
2023/08/25 12:03:44;;;;;;;45.63;30.77;;;21.10;99.90;;;;;;4959712;28;20128;-82
2023/08/25 12:06:11;;;;;;;45.70;33.10;;;21.20;99.90;;;;;;4979785;28;20046;-82
2023/08/25 12:08:39;;;;;;;46.95;32.35;;;21.10;99.90;;;;;;4979927;28;20054;-82
2023/08/25 12:11:07;;;;;;;42.97;31.92;;;21.10;99.90;;;;;;4945050;28;20550;-82
2023/08/25 12:13:37;;;;;;;48.08;32.38;;;21.30;99.90;;;;;;4943737;28;20481;-82
2023/08/25 12:16:04;;;;;;;48.00;31.25;;;21.60;99.90;;;;;;4960979;28;20164;-82
2023/08/25 12:18:34;;;;;;;45.78;30.65;;;21.80;99.90;;;;;;4963448;28;20085;-82
2023/08/25 12:21:05;;;;;;;46.83;31.95;;;21.70;99.90;;;;;;4949217;28;20273;-82
2023/08/25 12:23:34;;;;;;;48.10;33.05;;;22.00;99.90;;;;;;4981280;28;20038;-82
2023/08/25 12:26:00;;;;;;;41.08;29.63;;;21.80;99.90;;;;;;4958065;28;20174;-82
2023/08/25 12:28:26;;;;;;;42.28;29.08;;;21.90;99.90;;;;;;4964052;28;20538;-82